Time;durP1;ratioP1;P1;durP2;ratioP2;P2;SDS_P1;SDS_P2;PMS_P1;PMS_P2;Temp;Humidity;BMP_temperature;BMP_pressure;BME280_temperature;BME280_humidity;BME280_pressure;Samples;Min_cycle;Max_cycle;Signal;HPM_P1;HPM_P2
2023/04/09 00:00:42;;;;;;;7.95;5.63;;;;;;;11.10;51.85;101437.47;4130304;28;20061;-70
2023/04/09 00:02:45;;;;;;;8.15;5.47;;;;;;;11.11;52.09;101434.03;4130608;28;20496;-71
2023/04/09 00:04:48;;;;;;;10.25;6.28;;;;;;;11.15;52.16;101432.38;4146222;28;20451;-71
2023/04/09 00:06:54;;;;;;;10.30;5.78;;;;;;;11.11;51.87;101431.44;4129831;28;20426;-71
2023/04/09 00:08:57;;;;;;;8.05;5.85;;;;;;;11.07;52.31;101426.09;4131301;28;20049;-70
2023/04/09 00:11:06;;;;;;;7.95;5.57;;;;;;;11.10;52.36;101421.84;4131168;28;20059;-70
2023/04/09 00:13:09;;;;;;;9.38;6.20;;;;;;;11.10;52.04;101421.00;4130519;28;20046;-70
2023/04/09 00:15:15;;;;;;;9.27;5.97;;;;;;;11.07;51.97;101420.88;4130028;28;20042;-71
2023/04/09 00:17:35;;;;;;;9.45;6.43;;;;;;;11.07;52.24;101420.88;4133113;28;20104;-71
2023/04/09 00:19:41;;;;;;;;;;;;;;;11.05;52.87;101414.75;4134875;28;20492;-71
2023/04/09 00:21:43;;;;;;;;;;;;;;;11.06;52.60;101416.53;4134795;28;19922;-71
2023/04/09 00:23:49;;;;;;;11.07;6.88;;;;;;;11.03;52.57;101414.72;4133864;28;19925;-71
2023/04/09 00:25:54;;;;;;;8.23;6.10;;;;;;;11.12;51.92;101408.88;4134503;28;20066;-71
2023/04/09 00:28:00;;;;;;;9.05;5.93;;;;;;;11.00;52.35;101417.25;4133023;28;20042;-71
2023/04/09 00:30:07;;;;;;;9.93;6.22;;;;;;;10.95;52.54;101413.63;4133146;28;20046;-71
2023/04/09 00:32:10;;;;;;;8.93;5.97;;;;;;;10.95;52.68;101409.31;4116297;28;20449;-71
2023/04/09 00:34:14;;;;;;;7.93;5.47;;;;;;;10.93;51.93;101412.69;4132844;28;20049;-71
2023/04/09 00:36:17;;;;;;;8.35;5.70;;;;;;;10.97;52.65;101410.22;4134450;28;20488;-71
2023/04/09 00:38:20;;;;;;;9.13;6.53;;;;;;;10.96;52.47;101407.59;4134131;28;20061;-71
2023/04/09 00:40:25;;;;;;;9.07;6.25;;;;;;;10.97;52.37;101409.34;4132797;28;20101;-71
2023/04/09 00:42:31;;;;;;;8.80;5.72;;;;;;;10.98;52.29;101404.19;4132253;28;20405;-70
2023/04/09 00:44:34;;;;;;;9.25;6.43;;;;;;;10.88;51.98;101409.97;4132968;28;20039;-70
2023/04/09 00:46:37;;;;;;;9.38;6.22;;;;;;;10.82;52.99;101402.88;4116558;28;20038;-71
2023/04/09 00:48:40;;;;;;;10.05;6.32;;;;;;;10.79;52.52;101407.09;4132774;28;20046;-71
2023/04/09 00:50:45;;;;;;;8.93;6.55;;;;;;;10.81;52.51;101408.03;4133857;28;20038;-71
2023/04/09 00:52:47;;;;;;;8.40;6.20;;;;;;;10.83;52.91;101408.94;4133175;28;20448;-70
2023/04/09 00:54:52;;;;;;;8.98;7.00;;;;;;;10.85;53.21;101403.78;4132625;28;20113;-71
2023/04/09 00:56:55;;;;;;;8.70;6.55;;;;;;;10.86;52.49;101413.38;4132601;28;20046;-71
2023/04/09 00:58:59;;;;;;;8.60;6.30;;;;;;;10.80;52.81;101412.34;4148778;28;20092;-71
2023/04/09 01:01:02;;;;;;;11.38;6.97;;;;;;;10.79;52.74;101418.41;4132657;28;20518;-71
2023/04/09 01:03:06;;;;;;;9.32;6.88;;;;;;;10.80;52.61;101412.34;4148068;28;20133;-70
2023/04/09 01:05:10;;;;;;;9.73;7.30;;;;;;;10.75;52.64;101416.53;4132576;28;20559;-70
2023/04/09 01:07:21;;;;;;;9.45;6.57;;;;;;;10.74;52.46;101406.97;4132446;28;20043;-70
2023/04/09 01:09:28;;;;;;;9.60;7.43;;;;;;;10.72;52.91;101406.06;4132485;28;20096;-71
2023/04/09 01:11:37;;;;;;;12.07;7.55;;;;;;;10.67;52.68;101405.03;4133675;28;20046;-71
2023/04/09 01:13:48;;;;;;;11.05;7.80;;;;;;;10.75;52.62;101406.13;4131726;28;20085;-71
2023/04/09 01:15:55;;;;;;;10.90;6.78;;;;;;;10.62;53.15;101407.50;4132476;28;20493;-70
2023/04/09 01:18:06;;;;;;;10.63;7.75;;;;;;;10.63;53.66;101410.97;4132410;28;20042;-71
2023/04/09 01:20:13;;;;;;;12.23;8.73;;;;;;;10.58;53.01;101399.56;4132224;28;20475;-71
2023/04/09 01:22:29;;;;;;;11.77;8.35;;;;;;;10.61;53.32;101404.84;4131717;28;20512;-71
2023/04/09 01:24:44;;;;;;;11.75;8.32;;;;;;;10.54;52.82;101405.50;4133403;28;20046;-71
2023/04/09 01:26:58;;;;;;;12.73;9.13;;;;;;;10.50;53.67;101411.44;4132073;28;20042;-71
2023/04/09 01:29:10;;;;;;;12.13;8.40;;;;;;;10.44;53.17;101407.84;4131373;28;20127;-71
2023/04/09 01:31:15;;;;;;;11.20;8.45;;;;;;;10.41;54.29;101405.16;4148359;28;20046;-70
2023/04/09 01:33:20;;;;;;;11.98;8.35;;;;;;;10.45;54.36;101403.50;4131209;28;20121;-70
2023/04/09 01:35:25;;;;;;;11.15;8.40;;;;;;;10.50;53.63;101401.03;4132078;28;20141;-71
2023/04/09 01:37:29;;;;;;;12.57;8.52;;;;;;;10.42;54.12;101399.09;4132229;28;20093;-71
2023/04/09 01:39:32;;;;;;;9.85;7.95;;;;;;;10.41;54.51;101407.75;4115863;28;20054;-71
2023/04/09 01:41:37;;;;;;;11.60;7.88;;;;;;;10.41;54.29;101412.94;4115825;28;20480;-71
2023/04/09 01:43:41;;;;;;;12.18;8.80;;;;;;;10.43;54.83;101407.81;4132489;28;20034;-71
2023/04/09 01:45:46;;;;;;;12.98;8.98;;;;;;;10.46;54.62;101402.69;4131910;28;20061;-71
2023/04/09 01:47:49;;;;;;;12.35;8.77;;;;;;;10.49;53.73;101405.38;4133101;28;20089;-70
2023/04/09 01:49:52;;;;;;;11.90;8.95;;;;;;;10.40;54.11;101410.31;4131830;28;20089;-71
2023/04/09 01:51:55;;;;;;;10.80;7.70;;;;;;;10.36;54.41;101411.03;4131838;28;20093;-71
2023/04/09 01:53:59;;;;;;;12.18;8.18;;;;;;;10.39;54.99;101411.13;4131137;28;20058;-71
2023/04/09 01:56:02;;;;;;;12.07;8.80;;;;;;;10.37;55.19;101411.09;4131817;28;20038;-70
2023/04/09 01:58:05;;;;;;;12.35;9.05;;;;;;;10.34;55.13;101411.00;4147951;28;20162;-71
2023/04/09 02:00:10;;;;;;;11.77;8.40;;;;;;;10.40;54.54;101415.50;4131739;28;20039;-71
2023/04/09 02:02:32;;;;;;;11.27;8.57;;;;;;;10.38;55.02;101410.25;4132314;28;20576;-70
2023/04/09 02:04:41;;;;;;;14.68;9.70;;;;;;;10.47;53.97;101407.94;4132891;28;20042;-71
2023/04/09 02:06:48;;;;;;;12.02;8.68;;;;;;;10.38;54.69;101412.88;4131687;28;20034;-71
2023/04/09 02:08:52;;;;;;;13.57;9.85;;;;;;;10.35;54.75;101415.34;4131622;28;20046;-70
2023/04/09 02:10:57;;;;;;;;;;;;;;;10.29;55.19;101418.63;4115871;28;20051;-71
2023/04/09 02:13:02;;;;;;;14.52;10.40;;;;;;;10.36;54.87;101414.53;4132111;28;19929;-71
2023/04/09 02:15:07;;;;;;;13.02;9.77;;;;;;;10.37;54.33;101415.41;4131608;28;20034;-70
2023/04/09 02:17:10;;;;;;;15.25;10.80;;;;;;;10.39;54.78;101413.72;4131704;28;20133;-70
2023/04/09 02:19:14;;;;;;;13.40;9.68;;;;;;;10.29;54.91;101415.13;4115301;28;20038;-70
2023/04/09 02:21:17;;;;;;;14.10;10.23;;;;;;;10.21;55.27;101419.22;4131488;28;20635;-70
2023/04/09 02:23:20;;;;;;;12.95;9.43;;;;;;;10.32;54.54;101415.22;4130858;28;20047;-70
2023/04/09 02:25:24;;;;;;;13.00;10.13;;;;;;;10.24;55.26;101417.59;4147548;28;20118;-70
2023/04/09 02:27:27;;;;;;;13.02;9.93;;;;;;;10.16;55.25;101415.59;4115074;28;20141;-70
2023/04/09 02:29:30;;;;;;;13.85;9.63;;;;;;;10.13;55.50;101421.56;4131295;28;20049;-71
2023/04/09 02:31:33;;;;;;;14.20;9.75;;;;;;;10.22;55.01;101415.78;4131288;28;20061;-70
2023/04/09 02:33:36;;;;;;;14.80;10.73;;;;;;;10.25;55.20;101415.88;4146542;28;20076;-71
2023/04/09 02:35:40;;;;;;;13.15;8.35;;;;;;;10.13;55.34;101408.56;4115074;28;20057;-70
2023/04/09 02:37:43;;;;;;;13.35;9.52;;;;;;;10.18;54.83;101406.13;4131174;28;20078;-70
2023/04/09 02:39:46;;;;;;;12.93;10.32;;;;;;;10.22;55.01;101411.47;4147195;28;20046;-70
2023/04/09 02:41:49;;;;;;;13.48;10.10;;;;;;;10.29;55.03;101410.84;4131041;28;20046;-70
2023/04/09 02:43:52;;;;;;;13.48;10.00;;;;;;;10.25;55.26;101405.47;4130173;28;20061;-70
2023/04/09 02:45:55;;;;;;;13.43;10.25;;;;;;;10.29;55.01;101412.53;4130887;28;20043;-69
2023/04/09 02:47:57;;;;;;;13.18;10.13;;;;;;;10.27;54.36;101409.88;4132054;28;20042;-70
2023/04/09 02:50:00;;;;;;;12.95;9.95;;;;;;;10.19;54.92;101407.88;4130872;28;20092;-69
2023/04/09 02:52:09;;;;;;;15.35;11.60;;;;;;;10.20;55.55;101402.72;4146990;28;20045;-69
2023/04/09 02:54:12;;;;;;;15.18;10.75;;;;;;;10.20;55.33;101405.34;4130772;28;20475;-69
2023/04/09 02:56:15;;;;;;;14.52;10.13;;;;;;;10.08;55.27;101407.56;4130867;28;20049;-69
2023/04/09 02:58:18;;;;;;;15.15;11.18;;;;;;;10.11;55.50;101415.44;4130815;28;20038;-69
2023/04/09 03:00:21;;;;;;;14.07;10.90;;;;;;;10.09;55.45;101409.31;4130805;28;20129;-69
2023/04/09 03:02:24;;;;;;;14.93;11.27;;;;;;;10.06;55.85;101412.72;4130063;28;20054;-69
2023/04/09 03:04:27;;;;;;;17.77;11.60;;;;;;;10.05;55.94;101410.94;4130703;28;20547;-69
2023/04/09 03:06:31;;;;;;;17.67;11.53;;;;;;;10.11;55.62;101410.25;4130685;28;20056;-69
2023/04/09 03:08:35;;;;;;;15.98;10.95;;;;;;;10.10;55.44;101406.78;4130911;28;20290;-69
2023/04/09 03:10:38;;;;;;;14.95;10.45;;;;;;;10.11;55.55;101403.34;4131961;28;20130;-70
2023/04/09 03:12:43;;;;;;;14.38;10.63;;;;;;;10.06;55.83;101397.13;4129933;28;20053;-69
2023/04/09 03:14:46;;;;;;;16.63;11.38;;;;;;;10.06;55.23;101398.81;4114486;28;20106;-69
2023/04/09 03:16:49;;;;;;;14.00;10.52;;;;;;;10.06;55.34;101398.81;4130598;28;20126;-70
2023/04/09 03:18:51;;;;;;;14.55;10.55;;;;;;;10.06;55.59;101402.31;4114347;28;20517;-70
2023/04/09 03:20:55;;;;;;;14.15;10.10;;;;;;;10.06;56.21;101399.72;4131699;28;20057;-70
2023/04/09 03:22:58;;;;;;;14.63;10.88;;;;;;;10.10;56.14;101398.09;4129817;28;20069;-69
2023/04/09 03:25:11;;;;;;;14.93;10.90;;;;;;;10.11;56.37;101402.47;4130462;28;20045;-70
2023/04/09 03:27:14;;;;;;;14.30;10.50;;;;;;;10.05;56.43;101394.47;4130357;28;20516;-70
2023/04/09 03:29:17;;;;;;;15.98;11.18;;;;;;;10.09;56.02;101394.63;4130433;28;20044;-69
2023/04/09 03:31:20;;;;;;;14.57;10.40;;;;;;;10.05;55.67;101397.94;4114273;28;20050;-69
2023/04/09 03:33:23;;;;;;;14.90;9.35;;;;;;;9.97;55.85;101394.22;4129538;28;20042;-70
2023/04/09 03:35:29;;;;;;;15.18;10.48;;;;;;;9.96;55.90;101390.75;4146558;28;20046;-69
2023/04/09 03:37:34;;;;;;;17.40;12.23;;;;;;;9.95;55.86;101388.97;4146602;28;20069;-69
2023/04/09 03:39:37;;;;;;;16.42;11.20;;;;;;;9.92;56.40;101401.00;4114208;28;20487;-69
2023/04/09 03:41:42;;;;;;;14.02;10.60;;;;;;;9.89;56.06;101395.72;4131549;28;20042;-70
2023/04/09 03:43:48;;;;;;;15.13;10.85;;;;;;;9.93;55.79;101398.44;4129652;28;20081;-69
2023/04/09 03:45:56;;;;;;;15.98;11.32;;;;;;;9.81;56.42;101394.56;4130358;28;20066;-69
2023/04/09 03:48:01;;;;;;;17.00;11.60;;;;;;;9.80;56.76;101393.69;4130221;28;20532;-69
2023/04/09 03:50:05;;;;;;;16.60;11.15;;;;;;;9.75;56.52;101393.56;4130228;28;20039;-70
2023/04/09 03:52:19;;;;;;;;;;;;;;;9.62;56.70;101386.16;4146018;28;20042;-70
2023/04/09 03:54:30;;;;;;;14.07;10.93;;;;;;;9.56;57.40;101389.47;4130235;28;20029;-69
2023/04/09 03:56:33;;;;;;;15.00;10.32;;;;;;;9.65;57.01;101391.50;4130225;28;20039;-69
2023/04/09 03:58:39;;;;;;;15.98;10.90;;;;;;;9.65;57.11;101401.88;4130155;28;20045;-70
2023/04/09 04:00:43;;;;;;;14.60;10.60;;;;;;;9.70;56.35;101389.03;4114068;28;20433;-70
2023/04/09 04:03:03;;;;;;;15.73;11.43;;;;;;;9.65;56.87;101391.50;4129368;28;20050;-70
2023/04/09 04:05:26;;;;;;;16.98;12.52;;;;;;;9.70;56.35;101389.03;4130183;28;20034;-70
2023/04/09 04:07:32;;;;;;;15.25;11.90;;;;;;;9.63;56.95;101393.13;4113957;28;20039;-69
2023/04/09 04:09:41;;;;;;;15.30;11.43;;;;;;;9.67;56.70;101397.59;4130132;28;20038;-69
2023/04/09 04:11:47;;;;;;;15.45;10.85;;;;;;;9.63;57.06;101387.94;4113949;28;20464;-69
2023/04/09 04:13:54;;;;;;;18.35;12.98;;;;;;;9.66;56.86;101388.03;4129434;28;20050;-70
2023/04/09 04:15:58;;;;;;;16.45;12.57;;;;;;;9.62;56.57;101399.16;4113902;28;20057;-70
2023/04/09 04:18:01;;;;;;;17.40;13.27;;;;;;;9.63;56.81;101392.25;4130295;28;20038;-70
2023/04/09 04:20:14;;;;;;;17.58;13.45;;;;;;;9.56;56.91;101393.75;4130066;28;20097;-70
2023/04/09 04:22:29;;;;;;;16.38;11.48;;;;;;;9.57;57.16;101392.94;4145610;28;20042;-70
2023/04/09 04:24:35;;;;;;;17.13;13.38;;;;;;;9.58;57.03;101392.13;4130094;28;20042;-70
2023/04/09 04:26:39;;;;;;;16.65;11.52;;;;;;;9.61;56.80;101394.81;4113771;28;20149;-70
2023/04/09 04:28:43;;;;;;;16.67;12.60;;;;;;;9.60;57.21;101400.81;4129904;28;20049;-70
2023/04/09 04:30:53;;;;;;;17.55;12.57;;;;;;;9.63;56.74;101398.31;4113993;28;20078;-71
2023/04/09 04:32:56;;;;;;;15.50;12.20;;;;;;;9.58;56.88;101399.91;4145371;28;20129;-70
2023/04/09 04:34:59;;;;;;;19.27;13.98;;;;;;;9.59;57.10;101399.03;4129965;28;20039;-70
2023/04/09 04:37:02;;;;;;;18.27;12.90;;;;;;;9.47;57.60;101403.84;4113791;28;20055;-71
2023/04/09 04:39:07;;;;;;;18.35;13.27;;;;;;;9.59;57.09;101396.44;4130176;28;20098;-71
2023/04/09 04:41:30;;;;;;;19.27;13.55;;;;;;;9.52;57.37;101404.88;4130867;28;20081;-71
2023/04/09 04:43:47;;;;;;;18.48;14.30;;;;;;;9.46;57.58;101409.84;4145438;28;20060;-70
2023/04/09 04:45:56;;;;;;;20.17;12.85;;;;;;;9.44;57.56;101407.22;4129814;28;20042;-70
2023/04/09 04:48:02;;;;;;;19.08;13.90;;;;;;;9.42;57.86;101404.56;4129655;28;20042;-70
2023/04/09 04:50:07;;;;;;;16.83;12.23;;;;;;;9.46;57.66;101413.31;4129766;28;20059;-70
2023/04/09 04:52:23;;;;;;;18.05;13.65;;;;;;;9.44;57.70;101409.81;4145236;28;20508;-70
2023/04/09 04:54:28;;;;;;;19.63;14.23;;;;;;;9.47;57.80;101414.22;4113577;28;20053;-70
2023/04/09 04:56:32;;;;;;;20.60;14.32;;;;;;;9.46;57.75;101422.84;4145911;28;20097;-70
2023/04/09 04:58:53;;;;;;;19.95;13.73;;;;;;;9.47;57.50;101411.63;4145960;28;20118;-70
2023/04/09 05:00:59;;;;;;;17.17;13.25;;;;;;;9.50;57.89;101419.50;4129693;28;20049;-70
2023/04/09 05:03:02;;;;;;;20.35;13.52;;;;;;;9.48;57.77;101403.03;4129507;28;20527;-70
2023/04/09 05:05:21;;;;;;;18.10;13.73;;;;;;;9.45;58.09;101416.78;4116471;28;20097;-70
2023/04/09 05:07:28;;;;;;;17.70;13.02;;;;;;;9.44;58.18;101408.06;4132544;28;20046;-70
2023/04/09 05:09:32;;;;;;;19.58;13.18;;;;;;;9.40;58.21;101416.63;4116226;28;20039;-70
2023/04/09 05:11:39;;;;;;;16.95;12.32;;;;;;;9.37;58.43;101419.06;4132440;28;20433;-70
2023/04/09 05:13:48;;;;;;;15.68;12.35;;;;;;;9.34;58.81;101415.50;4132011;28;20472;-70
2023/04/09 05:15:51;;;;;;;21.10;13.95;;;;;;;9.31;58.56;101423.19;4132384;28;20088;-70
2023/04/09 05:17:56;;;;;;;19.60;13.18;;;;;;;9.32;58.75;101412.88;4148612;28;20157;-70
2023/04/09 05:19:59;;;;;;;19.60;13.02;;;;;;;9.34;59.19;101420.69;4132406;28;20128;-70
2023/04/09 05:22:11;;;;;;;19.77;13.45;;;;;;;9.44;58.78;101418.47;4115565;28;20050;-70
2023/04/09 05:24:14;;;;;;;21.60;14.15;;;;;;;9.43;58.80;101421.00;4132263;28;20504;-70
2023/04/09 05:26:17;;;;;;;18.98;13.40;;;;;;;9.47;58.37;101417.69;4116092;28;20054;-70
2023/04/09 05:28:27;;;;;;;19.27;13.65;;;;;;;9.46;58.36;101423.69;4116053;28;20525;-70
2023/04/09 05:30:40;;;;;;;18.20;13.45;;;;;;;9.54;58.57;101418.78;4116022;28;20566;-70
2023/04/09 05:32:43;;;;;;;19.17;14.50;;;;;;;9.52;58.74;101420.44;4115447;28;20106;-70
2023/04/09 05:34:48;;;;;;;20.25;14.27;;;;;;;9.59;58.12;101423.31;4146081;23;20068;-68
2023/04/09 05:36:51;;;;;;;20.00;15.57;;;;;;;9.54;58.07;101431.78;4115932;28;20038;-68
2023/04/09 05:38:56;;;;;;;23.13;16.23;;;;;;;9.53;58.34;101422.22;4115789;28;20070;-68
2023/04/09 05:41:00;;;;;;;25.08;18.20;;;;;;;9.49;58.17;101426.44;4115902;28;20050;-69
2023/04/09 05:43:03;;;;;;;21.27;14.88;;;;;;;9.50;58.32;101427.31;4131245;28;20039;-68
2023/04/09 05:45:17;;;;;;;19.02;14.25;;;;;;;9.47;58.60;101416.81;4115788;28;20039;-68
2023/04/09 05:47:24;;;;;;;20.25;14.50;;;;;;;9.44;58.68;101426.25;4099884;29;20390;-68
2023/04/09 05:49:54;;;;;;;20.60;15.63;;;;;;;9.42;58.78;101424.44;4098826;28;20058;-68
2023/04/09 05:51:57;;;;;;;20.23;15.95;;;;;;;9.40;58.71;101432.19;4099806;28;20050;-68
2023/04/09 05:54:03;;;;;;;25.80;20.50;;;;;;;9.43;58.79;101427.09;4099205;29;20409;-68
2023/04/09 05:56:14;;;;;;;22.77;16.42;;;;;;;9.41;58.65;101426.16;4099794;29;20098;-69
2023/04/09 05:58:25;;;;;;;27.63;21.10;;;;;;;9.41;58.86;101433.94;4099648;29;20039;-68
2023/04/09 06:00:28;;;;;;;26.02;19.27;;;;;;;9.43;59.22;101432.28;4099660;29;20143;-70
2023/04/09 06:02:31;;;;;;;22.65;16.77;;;;;;;9.40;59.55;101432.19;4099010;29;20047;-68
2023/04/09 06:04:35;;;;;;;27.53;16.63;;;;;;;9.41;59.66;101436.53;4099546;29;20035;-68
2023/04/09 06:06:40;;;;;;;20.13;15.05;;;;;;;9.49;59.35;101431.63;4100730;28;20289;-68
2023/04/09 06:08:43;;;;;;;30.33;17.80;;;;;;;9.47;59.08;101437.59;4100516;28;20390;-67
2023/04/09 06:10:48;;;;;;;91.32;35.85;;;;;;;9.51;59.04;101439.47;4100719;29;20047;-68
2023/04/09 06:12:51;;;;;;;126.57;50.88;;;;;;;9.50;59.37;101435.97;4098831;29;20505;-68
2023/04/09 06:14:54;;;;;;;77.22;34.28;;;;;;;9.56;58.89;101436.19;4098809;28;20585;-68
2023/04/09 06:16:58;;;;;;;40.75;19.70;;;;;;;9.49;58.97;101441.09;4083490;29;20039;-69
2023/04/09 06:19:01;;;;;;;28.73;17.50;;;;;;;9.44;59.44;101444.41;4099386;29;20051;-69
2023/04/09 06:21:05;;;;;;;20.10;15.18;;;;;;;9.55;58.77;101438.72;4100493;28;20138;-68
2023/04/09 06:23:10;;;;;;;58.15;25.35;;;;;;;9.58;58.87;101441.44;4099842;28;20040;-68
2023/04/09 06:25:13;;;;;;;49.63;24.90;;;;;;;9.62;58.71;101448.47;4100491;28;20039;-68
2023/04/09 06:27:17;;;;;;;41.92;24.17;;;;;;;9.63;59.22;101444.19;4099248;29;20501;-68
2023/04/09 06:29:20;;;;;;;33.38;19.50;;;;;;;9.65;58.19;101447.69;4100327;28;20065;-69
2023/04/09 06:31:26;;;;;;;35.70;20.02;;;;;;;9.64;59.24;101452.03;4100329;28;20049;-68
2023/04/09 06:33:29;;;;;;;42.13;22.55;;;;;;;9.69;58.69;101450.44;4099490;28;20517;-68
2023/04/09 06:35:32;;;;;;;31.23;19.73;;;;;;;9.69;58.79;101450.44;4100319;28;20489;-69
2023/04/09 06:37:35;;;;;;;25.95;16.85;;;;;;;9.66;58.85;101458.13;4100419;29;20102;-69
2023/04/09 06:39:40;;;;;;;25.63;15.70;;;;;;;9.65;59.29;101448.59;4100239;29;20066;-69
2023/04/09 06:41:59;;;;;;;28.38;18.63;;;;;;;9.73;58.84;101446.25;4100225;28;20039;-70
2023/04/09 06:44:15;;;;;;;22.80;15.13;;;;;;;9.73;58.59;101449.72;4098890;29;20161;-69
2023/04/09 06:46:19;;;;;;;23.80;16.23;;;;;;;9.81;58.73;101449.09;4098885;29;20098;-69
2023/04/09 06:48:22;;;;;;;22.08;15.05;;;;;;;9.86;58.21;101461.41;4100049;28;20042;-69
2023/04/09 06:50:24;;;;;;;20.65;15.63;;;;;;;9.86;58.37;101453.63;4114725;28;20035;-69
2023/04/09 06:52:27;;;;;;;19.50;15.07;;;;;;;9.90;58.25;101462.38;4099388;28;20102;-68
2023/04/09 06:54:30;;;;;;;38.53;22.48;;;;;;;9.99;58.51;101459.19;4099925;28;20401;-68
2023/04/09 06:56:34;;;;;;;49.88;26.15;;;;;;;10.09;58.21;101456.06;4100003;28;20066;-69
2023/04/09 06:58:37;;;;;;;32.60;20.15;;;;;;;10.10;58.22;101461.34;4114644;28;20449;-68
2023/04/09 07:00:40;;;;;;;25.70;16.83;;;;;;;10.16;57.89;101460.63;4098808;29;20043;-68
2023/04/09 07:02:43;;;;;;;22.15;15.82;;;;;;;10.20;57.87;101453.84;4099274;28;20133;-68
2023/04/09 07:04:47;;;;;;;18.95;14.52;;;;;;;10.27;57.46;101450.59;4098507;29;20082;-69
2023/04/09 07:06:50;;;;;;;19.88;15.02;;;;;;;10.32;57.79;101454.22;4099875;28;20497;-68
2023/04/09 07:08:53;;;;;;;20.50;15.27;;;;;;;10.39;57.54;101453.59;4099817;28;20239;-68
2023/04/09 07:10:56;;;;;;;19.05;14.77;;;;;;;10.39;56.83;101450.13;4098568;29;20481;-68
2023/04/09 07:13:01;;;;;;;19.92;14.30;;;;;;;10.47;57.65;101449.53;4099058;28;20541;-68
2023/04/09 07:15:06;;;;;;;19.02;14.40;;;;;;;10.52;57.28;101451.38;4099712;28;20050;-68
2023/04/09 07:17:08;;;;;;;;;;;;;;;10.51;57.73;101450.50;4100189;28;20130;-69
2023/04/09 07:19:11;;;;;;;19.17;14.13;;;;;;;10.56;56.69;101448.06;4099744;28;19922;-69
2023/04/09 07:21:15;;;;;;;17.95;12.95;;;;;;;10.57;57.48;101442.00;4099828;28;20078;-70
2023/04/09 07:23:17;;;;;;;18.20;12.50;;;;;;;10.63;58.14;101455.16;4098901;28;20114;-69
2023/04/09 07:25:21;;;;;;;18.20;13.30;;;;;;;10.65;57.79;101458.72;4097967;28;20332;-69
2023/04/09 07:27:26;;;;;;;17.95;13.48;;;;;;;10.61;57.26;101454.25;4099314;28;20043;-69
2023/04/09 07:29:30;;;;;;;16.13;12.20;;;;;;;10.67;57.70;101445.75;4098271;28;20138;-70
2023/04/09 07:31:33;;;;;;;18.17;13.13;;;;;;;10.72;57.29;101447.66;4099607;28;20043;-68
2023/04/09 07:33:37;;;;;;;19.17;13.93;;;;;;;10.78;57.10;101450.44;4098739;28;20070;-68
2023/04/09 07:35:40;;;;;;;18.95;13.07;;;;;;;10.98;57.58;101447.53;4099519;28;20425;-69
2023/04/09 07:37:44;;;;;;;20.30;16.10;;;;;;;11.26;55.29;101454.41;4098212;29;20047;-68
2023/04/09 07:39:47;;;;;;;18.75;14.02;;;;;;;11.34;54.89;101454.59;4099375;28;20114;-68
2023/04/09 07:41:50;;;;;;;20.77;15.40;;;;;;;11.27;55.66;101456.16;4098052;29;20047;-68
2023/04/09 07:43:53;;;;;;;18.25;13.02;;;;;;;11.21;55.29;101455.09;4098566;28;20501;-69
2023/04/09 07:45:57;;;;;;;19.52;14.80;;;;;;;11.18;55.46;101462.00;4099195;29;20069;-69
2023/04/09 07:47:59;;;;;;;19.92;14.65;;;;;;;11.21;55.74;101457.72;4099402;28;20047;-68
2023/04/09 07:50:02;;;;;;;19.17;14.63;;;;;;;11.30;55.71;101450.13;4099259;28;20047;-68
2023/04/09 07:52:06;;;;;;;16.20;12.18;;;;;;;11.27;56.44;101463.06;4099174;28;20046;-68
2023/04/09 07:54:09;;;;;;;18.33;13.13;;;;;;;11.15;56.03;101461.88;4099198;28;20457;-68
2023/04/09 07:56:12;;;;;;;19.13;13.63;;;;;;;11.27;55.97;101455.25;4099344;29;20410;-69
2023/04/09 07:58:15;;;;;;;20.52;15.18;;;;;;;11.44;56.03;101456.59;4099318;28;20059;-68
2023/04/09 08:00:19;;;;;;;18.17;13.45;;;;;;;11.58;54.88;101446.56;4098027;29;20102;-69
2023/04/09 08:02:25;;;;;;;18.85;14.05;;;;;;;11.59;54.07;101460.47;4098692;28;20043;-69
2023/04/09 08:04:29;;;;;;;20.60;14.30;;;;;;;11.60;54.29;101467.44;4097881;29;20110;-69
2023/04/09 08:06:32;;;;;;;20.13;15.52;;;;;;;11.70;53.97;101467.72;4098065;29;20501;-69
2023/04/09 08:08:35;;;;;;;17.23;12.90;;;;;;;11.59;53.89;101468.28;4097895;29;20043;-68
2023/04/09 08:10:38;;;;;;;18.10;14.18;;;;;;;11.74;54.10;101463.47;4099062;28;20094;-68
2023/04/09 08:12:41;;;;;;;16.73;13.10;;;;;;;11.71;53.30;101466.00;4098612;28;20039;-68
2023/04/09 08:14:43;;;;;;;19.27;15.18;;;;;;;11.56;54.25;101463.84;4099103;28;20078;-68
2023/04/09 08:16:48;;;;;;;16.73;13.27;;;;;;;11.54;54.89;101465.56;4097925;28;20043;-68
2023/04/09 08:18:53;;;;;;;16.23;12.25;;;;;;;11.52;54.55;101462.91;4099120;28;20494;-69
2023/04/09 08:20:57;;;;;;;18.77;13.73;;;;;;;11.73;54.54;101466.03;4099373;28;20486;-69
2023/04/09 08:23:00;;;;;;;17.67;13.80;;;;;;;12.00;53.68;101460.66;4098396;28;20406;-69
2023/04/09 08:25:03;;;;;;;15.30;11.68;;;;;;;12.04;53.06;101460.75;4098935;29;20066;-69
2023/04/09 08:27:06;;;;;;;16.00;12.32;;;;;;;12.04;53.85;101457.28;4099034;29;20066;-69
2023/04/09 08:29:11;;;;;;;19.02;12.88;;;;;;;12.15;53.92;101458.44;4097837;29;20501;-69
2023/04/09 08:31:14;;;;;;;18.83;13.57;;;;;;;12.25;53.74;101456.94;4099016;28;20050;-69
2023/04/09 08:33:17;;;;;;;17.83;13.07;;;;;;;12.20;54.31;101458.53;4097069;29;20502;-68
2023/04/09 08:35:21;;;;;;;18.27;13.52;;;;;;;12.32;54.46;101463.16;4097625;29;20146;-68
2023/04/09 08:37:25;;;;;;;16.35;12.25;;;;;;;12.42;54.12;101466.84;4100162;28;20043;-68
2023/04/09 08:39:28;;;;;;;17.00;13.20;;;;;;;12.51;53.57;101469.66;4102005;29;20130;-69
2023/04/09 08:41:31;;;;;;;15.70;12.73;;;;;;;12.69;51.58;101464.88;4102176;28;20122;-70
2023/04/09 08:43:36;;;;;;;16.75;13.00;;;;;;;12.81;50.91;101465.97;4101292;28;20493;-69
2023/04/09 08:45:59;;;;;;;16.35;12.77;;;;;;;12.73;50.67;101460.56;4116770;28;20133;-69
2023/04/09 08:48:03;;;;;;;13.48;10.38;;;;;;;12.69;51.27;101466.59;4101902;28;20545;-69
2023/04/09 08:50:07;;;;;;;15.38;12.57;;;;;;;12.89;50.51;101464.41;4101828;28;20063;-69
2023/04/09 08:52:11;;;;;;;13.95;10.10;;;;;;;12.98;51.04;101461.09;4101282;28;20049;-69
2023/04/09 08:54:15;;;;;;;16.73;11.77;;;;;;;13.24;50.73;101467.75;4101982;28;20039;-69
2023/04/09 08:56:20;;;;;;;17.23;12.00;;;;;;;12.95;50.52;101471.47;4101819;28;20071;-69
2023/04/09 08:58:22;;;;;;;16.52;11.32;;;;;;;12.55;51.37;101468.88;4101831;28;20050;-69
2023/04/09 09:00:26;;;;;;;13.48;10.57;;;;;;;12.82;49.76;101475.56;4101719;29;20043;-69
2023/04/09 09:02:30;;;;;;;15.00;10.23;;;;;;;12.84;50.46;101482.56;4099738;29;20276;-69
2023/04/09 09:04:44;;;;;;;12.90;9.73;;;;;;;13.04;49.97;101479.47;4101709;28;20047;-69
2023/04/09 09:06:47;;;;;;;14.10;11.57;;;;;;;12.90;50.18;101487.91;4101667;29;20397;-70
2023/04/09 09:09:05;;;;;;;14.05;11.18;;;;;;;13.04;49.17;101477.78;4101687;28;20044;-69
2023/04/09 09:11:08;;;;;;;14.20;11.38;;;;;;;13.18;48.69;101485.88;4101618;28;20062;-70
2023/04/09 09:13:23;;;;;;;15.35;10.88;;;;;;;13.23;49.17;101479.03;4100994;29;20044;-69
2023/04/09 09:15:27;;;;;;;15.77;11.30;;;;;;;13.28;48.53;101479.97;4101661;28;20051;-69
2023/04/09 09:17:30;;;;;;;15.10;11.27;;;;;;;13.40;47.57;101481.09;4101530;28;20568;-68
2023/04/09 09:19:34;;;;;;;14.40;11.52;;;;;;;13.24;47.45;101477.28;4100272;29;20457;-69
2023/04/09 09:21:37;;;;;;;16.55;11.30;;;;;;;12.86;48.92;101470.41;4101466;28;20051;-69
2023/04/09 09:23:41;;;;;;;15.93;12.13;;;;;;;12.64;49.47;101471.69;4100711;28;20378;-69
2023/04/09 09:25:45;;;;;;;15.55;12.25;;;;;;;12.66;50.02;101480.44;4100172;29;20047;-69
2023/04/09 09:27:48;;;;;;;13.98;10.68;;;;;;;12.37;50.35;101477.19;4100128;28;20051;-69
2023/04/09 09:29:51;;;;;;;14.77;11.63;;;;;;;12.36;50.57;101485.84;4101286;29;20047;-69
2023/04/09 09:31:55;;;;;;;13.57;10.35;;;;;;;12.36;50.98;101470.19;4101177;29;20397;-69
2023/04/09 09:33:59;;;;;;;14.90;12.15;;;;;;;12.40;51.11;101475.53;4099267;29;20576;-69
2023/04/09 09:36:03;;;;;;;13.38;9.77;;;;;;;12.51;50.93;101475.78;4101283;28;20516;-69